Nearby METAR Reports

 

KHOB - Hobbs, New Mexico, USA
Distance from station: S 40mi, 65km
Updated: Tue, 23-Oct-2018 3:55am MDT
Fog, Overcast
Fog, Overcast
 Wind from E
Wind: E 3 mph , 6 km/h
Temperature: 50°F , 10°C
Dew Point: 50°F , 10°C
Humidity: 100%
Barometer: 30.16 inHg , 1021.3 hPa
Summary: Fog
Clouds: Overcast
Visibility: less than 1/4 mile , 0.4 km
Cloud details: Overcast 200 ft
2018/10/23 09:55 KHOB 230955Z AUTO 09003KT M1/4SM FG OVC002 10/10 A3016 RMK AO2
KGNC - Seminole, Texas, USA
Distance from station: SE 55mi, 89km
Updated: Tue, 23-Oct-2018 3:55am MDT
Fog, Overcast
Fog, Overcast
 Wind from calm
Wind: Calm
Temperature: 52°F , 11°C
Dew Point: 52°F , 11°C
Humidity: 100%
Barometer: 30.21 inHg , 1023 hPa
Summary: Fog
Clouds: Overcast
Visibility: 1/2 mile , 0.8 km
Cloud details: Overcast 200 ft
2018/10/23 09:55 KGNC 230955Z AUTO 00000KT 1/2SM FG OVC002 11/11 A3021 RMK AO2 T01110111
 
KROW - Roswell, New Mexico, USA
Distance from station: W 67mi, 108km
Updated: Tue, 23-Oct-2018 3:51am MDT
Mist, Clear
Mist, Clear
 Wind from NE
Wind: NE 3 mph , 6 km/h
Temperature: 54°F , 12°C
Dew Point: 52°F , 11°C
Humidity: 94%
Barometer: 30.15 inHg , 1021 hPa
Summary: Mist
Clouds: Clear
Visibility: 3 miles , 5 km
2018/10/23 09:51 KROW 230951Z AUTO 04003KT 3SM BR CLR 12/11 A3015 RMK AO2 SLP166 T01170111
KATS - Artesia, New Mexico, USA
Distance from station: WSW 71mi, 114km
Updated: Tue, 23-Oct-2018 3:55am MDT
Clear
Clear
 Wind from calm
Wind: Calm
Temperature: 54°F , 12°C
Dew Point: 54°F , 12°C
Humidity: 100%
Barometer: 30.15 inHg , 1021 hPa
Clouds: Clear
Visibility: 10 miles , 16 km
2018/10/23 09:55 KATS 230955Z AUTO 00000KT 10SM CLR 12/12 A3015 RMK AO2
 
KCVS - Cannon AFB,Clovis, New Mexico, USA
Distance from station: 0 78mi, 125km
Updated: Tue, 23-Oct-2018 2:58am MDT
Clear
Clear
 Wind from calm
Wind: Calm
Temperature: 50°F , 10°C
Dew Point: 48°F , 9°C
Humidity: 94%
Barometer: 30.20 inHg , 1022.7 hPa
Clouds: Clear
Visibility: 10 miles , 16 km
2018/10/23 08:58 KCVS 230858Z AUTO 00000KT 10SM CLR 10/09 A3020 RMK AO2 SLP189 T01030092 53005 $
KE11 - Andrews, Texas, USA
Distance from station: SE 78mi, 126km
Updated: Tue, 23-Oct-2018 3:55am MDT
Mist, Overcast
Mist, Overcast
 Wind from calm
Wind: Calm
Temperature: 54°F , 12°C
Dew Point: 54°F , 12°C
Humidity: 100%
Barometer: 30.16 inHg , 1021.3 hPa
Summary: Mist
Clouds: Overcast
Visibility: 3/4 mile , 1.2 km
Cloud details: Overcast 300 ft
2018/10/23 09:55 KE11 230955Z AUTO 00000KT 3/4SM BR OVC003 12/12 A3016 RMK AO2 T01160116
 
KCNM - Carlsbad, New Mexico, USA
Distance from station: SW 82mi, 132km
Updated: Tue, 23-Oct-2018 3:53am MDT
Few Clouds
Few Clouds
 Wind from ENE
Wind: ENE 3 mph , 6 km/h
Temperature: 52°F , 11°C
Dew Point: 52°F , 11°C
Humidity: 100%
Barometer: 30.13 inHg , 1020.3 hPa
Clouds: Few Clouds
Visibility: 8 miles , 13 km
Cloud details: Few Clouds 600 ft
2018/10/23 09:53 KCNM 230953Z AUTO 06003KT 8SM FEW006 11/11 A3013 RMK AO2 SLP168 T01110106 $
KCVN - Clovis Muni, New Mexico, USA
Distance from station: N 83mi, 133km
Updated: Tue, 23-Oct-2018 3:56am MDT
Clear
Clear
 Wind from W
Wind: W 8 mph , 13 km/h
Temperature: 50°F , 10°C
Wind Chill: 47°F , 8°C
Dew Point: 48°F , 9°C
Humidity: 94%
Barometer: 30.19 inHg , 1022.4 hPa
Clouds: Clear
Visibility: 10 miles , 16 km
2018/10/23 09:56 KCVN 230956Z AUTO 28007KT 10SM CLR 10/09 A3019 RMK AO2 SLP200 T01000094
 
KLBB - Lubbock, Texas, USA
Distance from station: ENE 92mi, 149km
Updated: Tue, 23-Oct-2018 3:53am MDT
Mist, Mostly cloudy
Mist, Mostly cloudy
 Wind from calm
Wind: Calm
Temperature: 48°F , 9°C
Dew Point: 46°F , 8°C
Humidity: 94%
Barometer: 30.16 inHg , 1021.3 hPa
Summary: Mist
Clouds: Mostly cloudy
Visibility: 5 miles , 8 km
Cloud details: Mostly cloudy 500 ft
2018/10/23 09:53 KLBB 230953Z 00000KT 5SM BR BKN005 09/08 A3016 RMK AO2 SLP185 T00940083
KINK - Wink, Texas, USA
Distance from station: S 101mi, 163km
Updated: Tue, 23-Oct-2018 3:53am MDT
Mist, Overcast
Mist, Overcast
 Wind from ESE
Wind: ESE 6 mph , 9 km/h
Temperature: 55°F , 13°C
Dew Point: 54°F , 12°C
Humidity: 94%
Barometer: 30.12 inHg , 1020 hPa
Summary: Mist
Clouds: Overcast
Visibility: 4 miles , 6 km
Cloud details: Overcast 300 ft
2018/10/23 09:53 KINK 230953Z AUTO 11005KT 4SM BR OVC003 13/12 A3012 RMK AO2 SLP172 T01280122
 
KMAF - Midland, Texas, USA
Distance from station: SE 111mi, 179km
Updated: Tue, 23-Oct-2018 3:53am MDT
Mist, Overcast
Mist, Overcast
 Wind from SE
Wind: SE 7 mph , 11 km/h
Temperature: 54°F , 12°C
Dew Point: 54°F , 12°C
Humidity: 100%
Barometer: 30.15 inHg , 1021 hPa
Summary: Mist
Clouds: Overcast
Visibility: 3/4 mile , 1.2 km
Cloud details: Overcast 200 ft
2018/10/23 09:53 KMAF 230953Z AUTO 14006KT 3/4SM BR OVC002 12/12 A3015 RMK AO2 SLP183 T01220122
KSRR - Sierra B/Ruidoso, New Mexico, USA
Distance from station: W 127mi, 204km
Updated: Tue, 23-Oct-2018 3:55am MDT
Few Clouds
Few Clouds
 Wind from calm
Wind: Calm
Temperature: 48°F , 9°C
Dew Point: 46°F , 8°C
Humidity: 94%
Barometer: 30.28 inHg , 1025.4 hPa
Clouds: Few Clouds
Visibility: 10 miles , 16 km
Cloud details: Few Clouds 6000 ft
2018/10/23 09:55 KSRR 230955Z AUTO 00000KT 10SM FEW060 09/08 A3028 RMK AO2
 
KGDP - Guadalupe Pass, Texas, USA
Distance from station: SW 130mi, 209km
Updated: Tue, 23-Oct-2018 2:51am MDT
Overcast
Overcast
 Wind from ENE
Wind: ENE 7 mph , 11 km/h
Temperature: 57°F , 14°C
Dew Point: 54°F , 12°C
Humidity: 88%
Barometer: 30.21 inHg , 1023 hPa
Clouds: Overcast
Visibility: 10 miles , 16 km
Cloud details: Overcast 2500 ft
2018/10/23 08:51 KGDP 230851Z AUTO 06006KT 10SM OVC025 14/12 A3021 RMK AO2 SLP166 T01440122 58000 $